createdAt,value
2019-02-28T00:03:11.743Z,18.30
2019-02-28T00:08:18.314Z,19.80
2019-02-28T00:13:24.754Z,17.73
2019-02-28T00:19:04.137Z,20.30
2019-02-28T00:24:10.645Z,17.37
2019-02-28T00:29:17.248Z,18.73
2019-02-28T00:34:24.702Z,18.63
2019-02-28T00:39:34.651Z,17.67
2019-02-28T00:44:54.229Z,18.83
2019-02-28T00:50:00.787Z,18.33
2019-02-28T00:55:36.028Z,15.93
2019-02-28T01:00:42.832Z,17.60
2019-02-28T01:05:48.884Z,17.47
2019-02-28T01:10:55.851Z,19.23
2019-02-28T01:16:04.099Z,18.80
2019-02-28T01:21:10.882Z,18.97
2019-02-28T01:26:17.322Z,16.80
2019-02-28T01:31:24.098Z,20.40
2019-02-28T01:36:30.511Z,18.70
2019-02-28T01:41:37.949Z,20.13
2019-02-28T01:46:43.951Z,21.03
2019-02-28T01:51:49.868Z,21.27
2019-02-28T01:56:56.745Z,23.80
2019-02-28T02:02:06.645Z,19.47
2019-02-28T02:07:13.486Z,23.37
2019-02-28T02:12:20.382Z,18.97
2019-02-28T02:17:27.185Z,21.63
2019-02-28T02:22:33.844Z,19.30
2019-02-28T02:27:58.994Z,19.07
2019-02-28T02:33:05.852Z,18.87
2019-02-28T02:38:12.574Z,20.47
2019-02-28T02:43:21.989Z,20.27
2019-02-28T02:48:27.374Z,22.90
2019-02-28T02:53:41.533Z,22.60
2019-02-28T02:58:41.525Z,20.03
2019-02-28T03:03:47.387Z,22.03
2019-02-28T03:08:54.318Z,23.97
2019-02-28T03:14:01.090Z,19.67
2019-02-28T03:19:07.589Z,19.47
2019-02-28T03:24:16.261Z,20.80
2019-02-28T03:29:22.928Z,20.17
2019-02-28T03:34:29.838Z,23.17
2019-02-28T03:39:36.547Z,22.67
2019-02-28T03:45:02.618Z,21.57
2019-02-28T03:50:11.721Z,21.80
2019-02-28T03:55:18.182Z,20.47
2019-02-28T04:00:32.622Z,22.13
2019-02-28T04:05:35.383Z,23.07
2019-02-28T04:10:42.274Z,23.77
2019-02-28T04:16:07.443Z,27.83
2019-02-28T04:20:56.721Z,22.53
2019-02-28T04:26:03.431Z,23.80
2019-02-28T04:31:11.402Z,21.23
2019-02-28T04:36:18.220Z,21.13
2019-02-28T04:41:25.022Z,21.80
2019-02-28T04:46:32.609Z,21.57
2019-02-28T04:51:40.153Z,20.47
2019-02-28T04:56:47.280Z,24.83
2019-02-28T05:01:55.573Z,20.27
2019-02-28T05:07:02.656Z,23.87
2019-02-28T05:12:09.701Z,22.70
2019-02-28T05:17:19.322Z,26.37
2019-02-28T05:22:27.748Z,23.03
2019-02-28T05:27:36.446Z,26.07
2019-02-28T05:32:44.613Z,19.57
2019-02-28T05:37:50.957Z,26.43
2019-02-28T05:42:58.399Z,21.10
2019-02-28T05:48:28.097Z,21.13
2019-02-28T05:53:35.314Z,21.33
2019-02-28T05:58:43.095Z,22.53
2019-02-28T06:03:49.191Z,22.97
2019-02-28T06:08:57.114Z,21.30
2019-02-28T06:14:04.073Z,27.43
2019-02-28T06:19:11.261Z,25.70
2019-02-28T06:24:18.259Z,25.10
2019-02-28T06:29:24.948Z,25.87
2019-02-28T06:34:33.363Z,32.37
2019-02-28T06:39:40.470Z,27.43
2019-02-28T06:44:46.614Z,24.87
2019-02-28T06:49:54.341Z,27.80
2019-02-28T06:55:02.327Z,34.43
2019-02-28T07:00:17.807Z,28.33
2019-02-28T07:05:26.207Z,31.37
2019-02-28T07:10:33.679Z,30.57
2019-02-28T07:15:40.579Z,33.63
2019-02-28T07:20:47.263Z,40.37
2019-02-28T07:25:54.665Z,45.87
2019-02-28T07:31:01.706Z,50.40
2019-02-28T07:36:10.515Z,48.43
2019-02-28T07:41:20.229Z,46.90
2019-02-28T07:46:28.200Z,40.90
2019-02-28T07:51:35.443Z,46.90
2019-02-28T07:56:44.260Z,45.37
2019-02-28T08:01:52.285Z,48.33
2019-02-28T08:06:59.705Z,48.33
2019-02-28T08:12:07.734Z,55.10
2019-02-28T08:17:16.058Z,51.37
2019-02-28T08:22:24.236Z,46.93
2019-02-28T08:27:33.316Z,52.67
2019-02-28T08:32:43.785Z,49.57
2019-02-28T08:37:48.059Z,51.93
2019-02-28T08:42:55.815Z,53.23
2019-02-28T08:48:03.080Z,52.33
2019-02-28T08:53:12.396Z,50.77
2019-02-28T08:58:18.735Z,51.10
2019-02-28T09:03:27.310Z,52.03
2019-02-28T09:08:35.594Z,52.70
2019-02-28T09:13:42.970Z,47.67
2019-02-28T09:18:49.775Z,48.87
2019-02-28T09:23:58.028Z,57.80
2019-02-28T09:29:05.027Z,55.27
2019-02-28T09:34:16.112Z,54.87
2019-02-28T09:39:24.604Z,54.07
2019-02-28T09:44:32.533Z,53.30
2019-02-28T09:49:39.802Z,65.43
2019-02-28T09:54:46.968Z,57.63
2019-02-28T09:59:53.258Z,59.13
2019-02-28T10:05:02.904Z,57.20
2019-02-28T10:10:20.791Z,55.37
2019-02-28T10:15:29.598Z,58.77
2019-02-28T10:20:41.929Z,62.10
2019-02-28T10:25:48.226Z,52.70
2019-02-28T10:30:57.099Z,58.97
2019-02-28T10:36:04.063Z,56.63
2019-02-28T10:41:11.175Z,61.33
2019-02-28T10:46:20.017Z,57.33
2019-02-28T10:51:27.021Z,65.13
2019-02-28T10:56:34.054Z,60.67
2019-02-28T11:01:41.963Z,60.97
2019-02-28T11:06:48.869Z,58.07
2019-02-28T11:11:56.133Z,53.90
2019-02-28T11:17:03.602Z,57.50
2019-02-28T11:22:11.488Z,58.53
2019-02-28T11:27:19.541Z,56.07
2019-02-28T11:32:29.369Z,55.77
2019-02-28T11:37:35.916Z,53.13
2019-02-28T11:42:43.949Z,62.93
2019-02-28T11:47:52.799Z,56.63
2019-02-28T11:53:04.892Z,60.20
2019-02-28T11:58:08.809Z,58.03
2019-02-28T12:03:16.130Z,61.10
2019-02-28T12:08:23.536Z,62.17
2019-02-28T12:13:30.694Z,64.93
2019-02-28T12:18:41.563Z,62.53
2019-02-28T12:23:47.725Z,65.87
2019-02-28T12:28:54.428Z,65.17
2019-02-28T12:34:01.655Z,64.63
2019-02-28T12:39:09.706Z,65.07
2019-02-28T12:44:17.137Z,69.00
2019-02-28T12:49:26.168Z,65.53
2019-02-28T12:54:34.234Z,66.47
2019-02-28T12:59:45.957Z,69.47
2019-02-28T13:04:49.773Z,66.97
2019-02-28T13:09:57.677Z,60.47
2019-02-28T13:15:08.991Z,63.53
2019-02-28T13:20:33.692Z,61.27
2019-02-28T13:25:40.707Z,63.83
2019-02-28T13:30:50.182Z,62.27
2019-02-28T13:35:55.883Z,66.17
2019-02-28T13:41:02.875Z,64.73
2019-02-28T13:46:12.967Z,65.60
2019-02-28T13:51:18.905Z,66.20
2019-02-28T13:56:29.049Z,66.67
2019-02-28T14:01:34.659Z,70.47
2019-02-28T14:06:41.628Z,68.17
2019-02-28T14:11:48.332Z,63.13
2019-02-28T14:16:58.330Z,66.90
2019-02-28T14:22:04.819Z,66.83
2019-02-28T14:27:11.859Z,72.23
2019-02-28T14:32:19.077Z,74.17
2019-02-28T14:37:26.005Z,71.73
2019-02-28T14:42:32.928Z,69.17
2019-02-28T14:47:40.026Z,68.10
2019-02-28T14:52:46.722Z,70.80
2019-02-28T14:57:55.082Z,70.80
2019-02-28T15:03:03.023Z,74.37
2019-02-28T15:08:11.947Z,73.10
2019-02-28T15:13:20.848Z,69.93
2019-02-28T15:18:28.096Z,69.47
2019-02-28T15:23:35.108Z,72.20
2019-02-28T15:28:42.070Z,68.67
2019-02-28T15:33:48.322Z,81.57
2019-02-28T15:38:56.651Z,74.27
2019-02-28T15:44:03.632Z,76.73
2019-02-28T15:49:10.983Z,69.30
2019-02-28T15:54:21.731Z,77.37
2019-02-28T15:59:27.823Z,71.60
2019-02-28T16:04:35.494Z,69.00
2019-02-28T16:09:43.788Z,70.03
2019-02-28T16:14:51.600Z,75.87
2019-02-28T16:20:01.175Z,73.37
2019-02-28T16:25:21.760Z,85.10
2019-02-28T16:30:32.167Z,73.87
2019-02-28T16:35:39.213Z,76.87
2019-02-28T16:40:45.288Z,74.70
2019-02-28T16:46:15.463Z,79.07
2019-02-28T16:51:21.884Z,80.77
2019-02-28T16:56:29.040Z,81.73
2019-02-28T17:01:36.054Z,79.80
2019-02-28T17:06:43.007Z,94.63
2019-02-28T17:12:08.413Z,98.47
2019-02-28T17:17:16.995Z,88.53
2019-02-28T17:22:27.017Z,88.53
2019-02-28T17:27:34.840Z,93.60
2019-02-28T17:32:42.459Z,87.47
2019-02-28T17:37:48.688Z,95.97
2019-02-28T17:42:54.686Z,85.03
2019-02-28T17:48:49.102Z,98.17
2019-02-28T17:54:25.625Z,106.40
2019-02-28T17:59:51.460Z,115.60
2019-02-28T18:05:36.472Z,111.73
2019-02-28T18:11:36.651Z,117.50
2019-02-28T18:17:05.698Z,113.13
2019-02-28T18:22:38.705Z,112.93
2019-02-28T18:28:26.397Z,117.27
2019-02-28T18:33:33.548Z,129.00
2019-02-28T18:38:40.406Z,125.50
2019-02-28T18:43:46.358Z,119.73
2019-02-28T18:48:55.650Z,122.13
2019-02-28T18:54:02.759Z,119.47
2019-02-28T18:59:09.999Z,119.07
2019-02-28T19:04:17.043Z,119.53
2019-02-28T19:09:24.309Z,129.93
2019-02-28T19:14:31.113Z,123.40
2019-02-28T19:19:37.654Z,126.23
2019-02-28T19:24:44.065Z,121.37
2019-02-28T19:29:50.060Z,121.17
2019-02-28T19:34:56.849Z,121.07
2019-02-28T19:40:03.584Z,126.80
2019-02-28T19:45:42.724Z,130.23
2019-02-28T19:50:50.181Z,135.47
2019-02-28T19:55:57.197Z,118.83
2019-02-28T20:01:05.494Z,132.57
2019-02-28T20:06:12.435Z,134.87
2019-02-28T20:11:19.207Z,136.30
2019-02-28T20:16:25.847Z,134.33
2019-02-28T20:21:32.455Z,135.90
2019-02-28T20:26:39.677Z,134.77
2019-02-28T20:31:45.637Z,138.23
2019-02-28T20:36:52.490Z,141.30
2019-02-28T20:41:59.700Z,146.50
2019-02-28T20:47:06.831Z,138.17
2019-02-28T20:52:14.390Z,143.70
2019-02-28T20:57:21.627Z,142.23
2019-02-28T21:02:28.610Z,146.83
2019-02-28T21:07:35.542Z,147.50
2019-02-28T21:12:42.504Z,137.73
2019-02-28T21:17:48.558Z,135.07
2019-02-28T21:22:54.621Z,136.73
2019-02-28T21:28:01.666Z,130.33
2019-02-28T21:33:09.627Z,133.00
2019-02-28T21:38:16.412Z,132.13
2019-02-28T21:43:23.053Z,132.00
2019-02-28T21:48:31.322Z,131.33
2019-02-28T21:53:38.184Z,137.23
2019-02-28T21:58:44.103Z,140.07
2019-02-28T22:03:50.172Z,135.07
2019-02-28T22:08:56.878Z,138.77
2019-02-28T22:14:03.535Z,139.20
2019-02-28T22:19:10.169Z,138.57
2019-02-28T22:24:17.028Z,141.23
2019-02-28T22:29:24.711Z,144.20
2019-02-28T22:34:34.092Z,140.37
2019-02-28T22:39:42.167Z,141.60
2019-02-28T22:44:48.085Z,149.80
2019-02-28T22:49:54.030Z,157.07
2019-02-28T22:55:03.024Z,149.90
2019-02-28T23:00:29.216Z,148.67
2019-02-28T23:05:37.301Z,141.93
2019-02-28T23:10:43.976Z,139.53
2019-02-28T23:15:49.913Z,133.77
2019-02-28T23:20:56.860Z,132.17
2019-02-28T23:26:12.214Z,134.93
2019-02-28T23:31:39.457Z,144.03
2019-02-28T23:36:46.415Z,149.10
2019-02-28T23:41:55.173Z,140.20
2019-02-28T23:47:01.933Z,141.17
2019-02-28T23:52:08.842Z,128.70
2019-02-28T23:57:15.666Z,120.33
